Terminal Aerodrome Forecast
Issued by NWS

Home | Current Version | Previous Version | Graphics & Text | Print | Product List | Glossary On
Versions: 1 2 3 4 5 6 7 8 9 10 11 12 13 14 15 16 17
000
FTUS41 KCLE 250500
TAFFDY
TAF
KFDY 250520Z 2506/2606 07008KT P6SM OVC080
     FM250900 08010KT P6SM -RA OVC060
      TEMPO 2509/2513 5SM -RA BR OVC035
     FM251300 09012G16KT P6SM VCSH OVC050
     FM251600 08014G22KT 6SM -RA OVC035
      TEMPO 2518/2522 4SM -RA BR OVC020
     FM260000 05015G25KT P6SM OVC050
     FM260400 03012KT P6SM SCT050 BKN100=

USA.gov is the U.S. government's official web portal to all federal, state and local government web resources and services.